createdAt,value
2019-04-25T00:02:40.839Z,78.92
2019-04-25T00:06:05.337Z,78.44
2019-04-25T00:09:31.726Z,78.78
2019-04-25T00:12:55.036Z,79.76
2019-04-25T00:16:22.369Z,78.66
2019-04-25T00:19:46.402Z,78.24
2019-04-25T00:23:15.275Z,78.66
2019-04-25T00:26:43.992Z,79.01
2019-04-25T00:30:07.571Z,78.01
2019-04-25T00:33:31.566Z,78.18
2019-04-25T00:36:54.822Z,78.65
2019-04-25T00:40:18.330Z,78.41
2019-04-25T00:43:42.965Z,77.81
2019-04-25T00:47:06.655Z,78.17
2019-04-25T00:50:32.525Z,78.45
2019-04-25T00:53:55.742Z,78.13
2019-04-25T00:57:19.408Z,78.17
2019-04-25T01:01:02.882Z,78.29
2019-04-25T01:04:27.303Z,77.56
2019-04-25T01:07:52.147Z,78.15
2019-04-25T01:11:15.449Z,78.45
2019-04-25T01:14:38.649Z,77.32
2019-04-25T01:18:02.874Z,77.70
2019-04-25T01:21:26.030Z,78.14
2019-04-25T01:24:49.378Z,77.95
2019-04-25T01:28:13.145Z,77.96
2019-04-25T01:31:36.607Z,79.02
2019-04-25T01:35:07.100Z,78.50
2019-04-25T01:39:04.300Z,78.06
2019-04-25T01:42:41.145Z,77.80
2019-04-25T01:46:04.398Z,77.50
2019-04-25T01:49:27.792Z,76.57
2019-04-25T01:52:54.382Z,76.63
2019-04-25T01:56:17.347Z,76.42
2019-04-25T01:59:40.620Z,76.71
2019-04-25T02:03:04.854Z,76.80
2019-04-25T02:06:29.273Z,76.90
2019-04-25T02:09:54.612Z,76.34
2019-04-25T02:13:19.466Z,76.49
2019-04-25T02:16:43.974Z,76.44
2019-04-25T02:20:07.338Z,76.44
2019-04-25T02:23:34.144Z,76.11
2019-04-25T02:26:57.655Z,76.23
2019-04-25T02:30:25.415Z,75.31
2019-04-25T02:33:48.714Z,75.88
2019-04-25T02:37:14.378Z,75.57
2019-04-25T02:40:36.993Z,75.46
2019-04-25T02:44:07.638Z,73.81
2019-04-25T02:47:46.739Z,74.54
2019-04-25T02:51:16.845Z,74.54
2019-04-25T02:54:39.854Z,73.74
2019-04-25T02:58:05.638Z,73.85
2019-04-25T03:01:30.056Z,74.22
2019-04-25T03:04:54.547Z,73.40
2019-04-25T03:08:17.891Z,73.45
2019-04-25T03:11:45.044Z,72.74
2019-04-25T03:15:09.995Z,73.47
2019-04-25T03:18:34.937Z,73.75
2019-04-25T03:22:01.547Z,72.37
2019-04-25T03:25:25.375Z,72.27
2019-04-25T03:28:48.431Z,71.71
2019-04-25T03:32:14.447Z,71.71
2019-04-25T03:35:36.616Z,71.23
2019-04-25T03:39:05.073Z,70.33
2019-04-25T03:42:30.571Z,69.99
2019-04-25T03:45:53.709Z,69.78
2019-04-25T03:49:17.744Z,69.97
2019-04-25T03:52:40.906Z,69.29
2019-04-25T03:56:05.841Z,69.94
2019-04-25T03:59:30.129Z,68.99
2019-04-25T04:02:53.848Z,69.09
2019-04-25T04:06:18.133Z,68.74
2019-04-25T04:09:41.549Z,69.33
2019-04-25T04:13:06.267Z,67.87
2019-04-25T04:16:36.041Z,69.04
2019-04-25T04:20:17.974Z,68.60
2019-04-25T04:24:00.906Z,68.53
2019-04-25T04:27:24.069Z,68.72
2019-04-25T04:30:47.498Z,69.33
2019-04-25T04:34:10.668Z,68.73
2019-04-25T04:37:33.823Z,68.50
2019-04-25T04:40:56.855Z,67.64
2019-04-25T04:44:20.430Z,67.63
2019-04-25T04:47:43.580Z,68.77
2019-04-25T04:51:06.676Z,67.39
2019-04-25T04:54:30.513Z,67.45
2019-04-25T04:57:54.255Z,67.61
2019-04-25T05:01:19.314Z,67.31
2019-04-25T05:05:05.191Z,66.96
2019-04-25T05:08:34.192Z,66.48
2019-04-25T05:12:08.022Z,66.49
2019-04-25T05:15:31.167Z,66.34
2019-04-25T05:18:55.368Z,66.32
2019-04-25T05:22:18.631Z,65.46
2019-04-25T05:25:41.742Z,66.15
2019-04-25T05:29:04.767Z,66.02
2019-04-25T05:32:27.839Z,65.11
2019-04-25T05:35:51.810Z,64.85
2019-04-25T05:39:17.339Z,64.18
2019-04-25T05:43:05.611Z,64.20
2019-04-25T05:46:31.684Z,64.03
2019-04-25T05:49:55.079Z,64.81
2019-04-25T05:53:18.100Z,64.61
2019-04-25T05:56:41.137Z,64.31
2019-04-25T06:00:04.970Z,63.46
2019-04-25T06:03:31.262Z,62.66
2019-04-25T06:06:55.219Z,63.42
2019-04-25T06:10:41.061Z,63.63
2019-04-25T06:14:07.035Z,62.38
2019-04-25T06:17:53.407Z,62.32
2019-04-25T06:21:17.326Z,61.66
2019-04-25T06:24:45.690Z,61.57
2019-04-25T06:28:11.683Z,60.05
2019-04-25T06:31:34.830Z,60.24
2019-04-25T06:35:00.141Z,60.76
2019-04-25T06:38:26.064Z,59.56
2019-04-25T06:41:49.995Z,59.97
2019-04-25T06:45:37.827Z,59.47
2019-04-25T06:49:13.331Z,59.58
2019-04-25T06:52:36.817Z,59.00
2019-04-25T06:56:03.523Z,59.62
2019-04-25T06:59:27.907Z,59.35
2019-04-25T07:02:53.144Z,59.73
2019-04-25T07:06:16.507Z,59.02
2019-04-25T07:09:39.945Z,58.07
2019-04-25T07:13:04.303Z,57.67
2019-04-25T07:16:27.701Z,57.92
2019-04-25T07:19:54.149Z,57.94
2019-04-25T07:23:17.354Z,57.23
2019-04-25T07:27:00.105Z,56.77
2019-04-25T07:30:50.182Z,55.82
2019-04-25T07:34:14.202Z,55.97
2019-04-25T07:37:41.574Z,56.31
2019-04-25T07:41:03.569Z,56.44
2019-04-25T07:44:38.163Z,55.25
2019-04-25T07:47:53.993Z,55.98
2019-04-25T07:51:17.329Z,56.48
2019-04-25T07:54:40.378Z,56.99
2019-04-25T07:58:03.577Z,55.43
2019-04-25T08:01:26.891Z,55.70
2019-04-25T08:04:51.255Z,55.08
2019-04-25T08:08:14.421Z,55.00
2019-04-25T08:11:38.300Z,54.99
2019-04-25T08:15:09.242Z,53.76
2019-04-25T08:18:32.925Z,53.18
2019-04-25T08:21:57.354Z,53.48
2019-04-25T08:25:21.145Z,52.44
2019-04-25T08:28:54.335Z,51.77
2019-04-25T08:32:10.269Z,52.02
2019-04-25T08:35:35.215Z,52.75
2019-04-25T08:39:00.910Z,52.19
2019-04-25T08:42:24.669Z,52.02
2019-04-25T08:45:51.296Z,52.40
2019-04-25T08:49:23.974Z,51.96
2019-04-25T08:52:47.212Z,51.25
2019-04-25T08:56:15.782Z,50.86
2019-04-25T08:59:52.235Z,49.46
2019-04-25T09:03:17.290Z,50.97
2019-04-25T09:06:40.432Z,49.97
2019-04-25T09:10:03.982Z,49.48
2019-04-25T09:13:29.049Z,49.55
2019-04-25T09:16:53.371Z,49.68
2019-04-25T09:20:17.052Z,50.45
2019-04-25T09:23:41.576Z,50.89
2019-04-25T09:27:04.714Z,49.29
2019-04-25T09:30:30.589Z,50.51
2019-04-25T09:33:55.760Z,49.20
2019-04-25T09:37:18.946Z,49.53
2019-04-25T09:40:42.224Z,50.50
2019-04-25T09:44:07.350Z,48.77
2019-04-25T09:47:35.592Z,48.03
2019-04-25T09:51:08.447Z,46.99
2019-04-25T09:54:38.082Z,45.82
2019-04-25T09:58:08.576Z,47.35
2019-04-25T10:01:31.787Z,47.10
2019-04-25T10:04:55.239Z,45.12
2019-04-25T10:08:19.711Z,46.04
2019-04-25T10:11:43.980Z,46.50
2019-04-25T10:15:50.373Z,45.87
2019-04-25T10:19:13.624Z,45.29
2019-04-25T10:22:36.764Z,45.09
2019-04-25T10:26:03.868Z,44.12
2019-04-25T10:29:39.139Z,44.04
2019-04-25T10:32:53.183Z,46.34
2019-04-25T10:36:16.820Z,45.51
2019-04-25T10:39:40.115Z,46.45
2019-04-25T10:43:04.462Z,47.72
2019-04-25T10:46:27.526Z,46.63
2019-04-25T10:49:50.640Z,45.99
2019-04-25T10:53:13.948Z,45.03
2019-04-25T10:56:37.154Z,45.38
2019-04-25T11:00:07.607Z,43.97
2019-04-25T11:03:49.428Z,41.69
2019-04-25T11:07:13.649Z,39.82
2019-04-25T11:10:37.030Z,40.28
2019-04-25T11:14:03.294Z,39.93
2019-04-25T11:17:26.762Z,38.65
2019-04-25T11:20:50.388Z,37.95
2019-04-25T11:24:14.291Z,38.95
2019-04-25T11:27:37.834Z,40.21
2019-04-25T11:31:02.064Z,39.45
2019-04-25T11:34:25.522Z,42.33
2019-04-25T11:37:50.623Z,39.74
2019-04-25T11:41:15.298Z,37.51
2019-04-25T11:44:38.372Z,39.51
2019-04-25T11:48:02.018Z,39.88
2019-04-25T11:51:26.354Z,36.73
2019-04-25T11:54:50.051Z,34.49
2019-04-25T11:58:14.288Z,32.17
2019-04-25T12:01:37.817Z,33.24
2019-04-25T12:05:00.933Z,31.05
2019-04-25T12:08:24.336Z,30.90
2019-04-25T12:11:48.572Z,30.31
2019-04-25T12:15:13.248Z,32.54
2019-04-25T12:18:37.276Z,29.20
2019-04-25T12:22:04.024Z,27.92
2019-04-25T12:25:27.513Z,27.95
2019-04-25T12:28:51.434Z,29.70
2019-04-25T12:32:14.846Z,29.01
2019-04-25T12:35:38.700Z,29.07
2019-04-25T12:39:03.399Z,28.24
2019-04-25T12:42:31.581Z,29.82
2019-04-25T12:46:02.970Z,29.46
2019-04-25T12:49:25.989Z,26.64
2019-04-25T12:52:49.219Z,26.46
2019-04-25T12:56:12.692Z,26.06
2019-04-25T12:59:35.759Z,24.19
2019-04-25T13:03:00.290Z,25.63
2019-04-25T13:06:23.874Z,25.30
2019-04-25T13:09:48.300Z,25.07
2019-04-25T13:13:14.634Z,27.10
2019-04-25T13:16:37.154Z,26.17
2019-04-25T13:20:01.652Z,24.37
2019-04-25T13:23:26.176Z,25.83
2019-04-25T13:26:56.948Z,23.07
2019-04-25T13:30:43.148Z,24.19
2019-04-25T13:34:14.157Z,22.00
2019-04-25T13:37:37.441Z,25.09
2019-04-25T13:41:04.088Z,27.44
2019-04-25T13:44:27.581Z,27.55
2019-04-25T13:47:50.896Z,26.65
2019-04-25T13:51:14.238Z,28.59
2019-04-25T13:54:37.521Z,27.02
2019-04-25T13:58:00.877Z,26.91
2019-04-25T14:01:24.687Z,27.23
2019-04-25T14:04:48.852Z,27.17
2019-04-25T14:08:13.443Z,27.94
2019-04-25T14:11:38.040Z,29.35
2019-04-25T14:15:03.822Z,29.95
2019-04-25T14:18:50.282Z,30.33
2019-04-25T14:22:16.609Z,30.83
2019-04-25T14:25:39.665Z,30.76
2019-04-25T14:29:04.230Z,32.43
2019-04-25T14:32:28.896Z,32.34
2019-04-25T14:35:53.334Z,30.98
2019-04-25T14:39:17.991Z,30.53
2019-04-25T14:42:41.013Z,31.67
2019-04-25T14:46:04.344Z,32.97
2019-04-25T14:49:28.301Z,32.89
2019-04-25T14:52:51.598Z,32.85
2019-04-25T14:56:43.386Z,33.28
2019-04-25T15:00:12.978Z,33.05
2019-04-25T15:03:36.514Z,33.47
2019-04-25T15:07:01.998Z,33.46
2019-04-25T15:10:25.139Z,33.76
2019-04-25T15:13:48.955Z,33.55
2019-04-25T15:17:12.499Z,33.47
2019-04-25T15:20:35.570Z,33.31
2019-04-25T15:24:00.604Z,34.31
2019-04-25T15:27:24.118Z,34.00
2019-04-25T15:30:49.126Z,34.22
2019-04-25T15:34:12.411Z,34.03
2019-04-25T15:37:51.151Z,33.90
2019-04-25T15:41:21.641Z,34.54
2019-04-25T15:44:47.490Z,37.44
2019-04-25T15:48:10.705Z,37.13
2019-04-25T15:51:33.759Z,38.63
2019-04-25T15:55:06.436Z,39.23
2019-04-25T15:58:21.814Z,39.24
2019-04-25T16:01:45.363Z,39.75
2019-04-25T16:05:09.077Z,42.15
2019-04-25T16:08:33.001Z,42.75
2019-04-25T16:11:56.203Z,42.24
2019-04-25T16:15:19.441Z,43.70
2019-04-25T16:18:43.721Z,44.12
2019-04-25T16:22:07.185Z,44.71
2019-04-25T16:25:33.290Z,44.91
2019-04-25T16:28:57.036Z,45.98
2019-04-25T16:32:21.986Z,46.40
2019-04-25T16:35:45.001Z,44.29
2019-04-25T16:39:10.170Z,43.28
2019-04-25T16:42:35.917Z,43.36
2019-04-25T16:46:02.147Z,44.53
2019-04-25T16:49:25.389Z,47.57
2019-04-25T16:52:48.567Z,46.53
2019-04-25T16:56:12.028Z,47.19
2019-04-25T16:59:35.594Z,48.19
2019-04-25T17:03:01.679Z,49.45
2019-04-25T17:06:24.938Z,50.53
2019-04-25T17:09:47.948Z,51.23
2019-04-25T17:13:11.158Z,51.70
2019-04-25T17:17:01.781Z,51.87
2019-04-25T17:20:30.667Z,50.80
2019-04-25T17:23:59.653Z,50.87
2019-04-25T17:27:22.968Z,51.44
2019-04-25T17:30:48.621Z,51.16
2019-04-25T17:34:21.495Z,46.39
2019-04-25T17:37:49.448Z,44.57
2019-04-25T17:41:12.605Z,42.28
2019-04-25T17:44:36.347Z,43.07
2019-04-25T17:48:02.145Z,43.64
2019-04-25T17:51:25.356Z,45.00
2019-04-25T17:54:48.780Z,46.75
2019-04-25T17:58:11.840Z,48.27
2019-04-25T18:01:35.808Z,50.51
2019-04-25T18:05:01.374Z,52.57
2019-04-25T18:08:25.117Z,52.43
2019-04-25T18:11:48.156Z,53.11
2019-04-25T18:15:13.135Z,54.25
2019-04-25T18:18:45.971Z,54.92
2019-04-25T18:22:27.614Z,56.42
2019-04-25T18:26:22.515Z,55.87
2019-04-25T18:29:46.319Z,55.80
2019-04-25T18:33:29.088Z,57.56
2019-04-25T18:37:03.071Z,57.49
2019-04-25T18:40:52.238Z,57.21
2019-04-25T18:44:16.398Z,57.72
2019-04-25T18:47:40.356Z,57.26
2019-04-25T18:51:03.736Z,57.63
2019-04-25T18:55:01.635Z,60.26
2019-04-25T18:58:46.389Z,62.28
2019-04-25T19:02:29.819Z,65.71
2019-04-25T19:06:01.447Z,70.12
2019-04-25T19:09:24.636Z,74.13
2019-04-25T19:12:47.712Z,76.71
2019-04-25T19:16:10.799Z,77.54
2019-04-25T19:19:33.878Z,78.55
2019-04-25T19:22:56.984Z,79.19
2019-04-25T19:26:20.054Z,80.04
2019-04-25T19:29:43.927Z,80.25
2019-04-25T19:33:07.742Z,81.12
2019-04-25T19:36:32.220Z,80.62
2019-04-25T19:40:23.703Z,79.84
2019-04-25T19:44:10.702Z,79.38
2019-04-25T19:47:33.844Z,78.84
2019-04-25T19:50:57.075Z,80.79
2019-04-25T19:54:20.199Z,79.57
2019-04-25T19:57:43.845Z,80.38
2019-04-25T20:01:07.637Z,79.38
2019-04-25T20:04:41.824Z,79.46
2019-04-25T20:08:16.099Z,79.89
2019-04-25T20:11:47.071Z,80.59
2019-04-25T20:15:10.500Z,82.99
2019-04-25T20:18:34.587Z,82.60
2019-04-25T20:22:02.462Z,83.00
2019-04-25T20:25:26.772Z,83.39
2019-04-25T20:28:51.254Z,81.63
2019-04-25T20:32:14.509Z,82.14
2019-04-25T20:35:37.726Z,83.16
2019-04-25T20:39:00.995Z,83.04
2019-04-25T20:42:26.355Z,81.73
2019-04-25T20:45:50.241Z,82.10
2019-04-25T20:49:14.083Z,82.52
2019-04-25T20:52:38.191Z,80.80
2019-04-25T20:56:02.282Z,81.99
2019-04-25T20:59:34.721Z,82.39
2019-04-25T21:03:00.196Z,80.89
2019-04-25T21:06:29.510Z,82.06
2019-04-25T21:09:53.247Z,80.71
2019-04-25T21:13:23.546Z,82.71
2019-04-25T21:16:59.287Z,82.77
2019-04-25T21:20:22.473Z,82.03
2019-04-25T21:23:45.715Z,81.56
2019-04-25T21:27:09.142Z,81.70
2019-04-25T21:30:32.850Z,81.93
2019-04-25T21:33:56.273Z,81.52
2019-04-25T21:37:22.593Z,81.38
2019-04-25T21:41:05.705Z,81.17
2019-04-25T21:44:31.938Z,81.45
2019-04-25T21:47:55.079Z,81.32
2019-04-25T21:51:31.360Z,81.51
2019-04-25T21:54:55.839Z,82.00
2019-04-25T21:58:19.269Z,81.59
2019-04-25T22:01:43.536Z,81.86
2019-04-25T22:05:07.135Z,81.98
2019-04-25T22:08:30.598Z,81.92
2019-04-25T22:11:54.757Z,82.27
2019-04-25T22:15:19.021Z,81.28
2019-04-25T22:18:42.395Z,82.08
2019-04-25T22:22:06.785Z,83.00
2019-04-25T22:25:32.041Z,81.44
2019-04-25T22:28:55.461Z,82.65
2019-04-25T22:32:53.536Z,81.48
2019-04-25T22:36:21.243Z,82.33
2019-04-25T22:39:44.284Z,81.92
2019-04-25T22:43:10.399Z,81.11
2019-04-25T22:46:33.952Z,81.54
2019-04-25T22:49:57.226Z,80.74
2019-04-25T22:53:22.732Z,80.51
2019-04-25T22:56:45.895Z,79.95
2019-04-25T23:00:12.857Z,80.66
2019-04-25T23:03:42.224Z,80.21
2019-04-25T23:07:05.967Z,80.02
2019-04-25T23:10:31.214Z,80.66
2019-04-25T23:13:54.306Z,80.96
2019-04-25T23:17:18.170Z,80.66
2019-04-25T23:20:41.578Z,79.75
2019-04-25T23:24:05.532Z,80.19
2019-04-25T23:28:06.410Z,79.61
2019-04-25T23:31:33.917Z,79.97
2019-04-25T23:34:57.349Z,80.51
2019-04-25T23:38:20.651Z,81.43
2019-04-25T23:41:43.727Z,79.92
2019-04-25T23:45:08.115Z,80.62
2019-04-25T23:48:31.290Z,79.48
2019-04-25T23:51:54.644Z,80.27
2019-04-25T23:55:18.064Z,80.26
2019-04-25T23:58:41.161Z,80.49
